Time;durP1;ratioP1;P1;durP2;ratioP2;P2;SDS_P1;SDS_P2;PMS_P1;PMS_P2;Temp;Humidity;BMP_temperature;BMP_pressure;BME280_temperature;BME280_humidity;BME280_pressure;Samples;Min_cycle;Max_cycle;Signal;HPM_P1;HPM_P2
2021/11/05 00:02:02;;;;;;;9.90;6.40;;;;;;;9.42;70.53;97017.31;4973233;28;20162;-79
2021/11/05 00:04:28;;;;;;;11.35;6.40;;;;;;;9.42;70.48;97022.53;4989992;28;20219;-80
2021/11/05 00:06:53;;;;;;;9.65;7.00;;;;;;;9.44;69.58;97020.50;4972539;28;20068;-79
2021/11/05 00:09:18;;;;;;;11.75;7.50;;;;;;;9.44;70.13;97032.69;4973685;28;20058;-79
2021/11/05 00:11:44;;;;;;;12.25;7.00;;;;;;;9.40;70.34;97034.97;4990516;28;20038;-79
2021/11/05 00:14:09;;;;;;;11.02;7.30;;;;;;;9.49;70.39;97032.75;4974205;28;20558;-79
2021/11/05 00:16:34;;;;;;;12.35;7.45;;;;;;;9.48;70.23;97036.38;4989899;28;20061;-79
2021/11/05 00:19:00;;;;;;;11.10;7.10;;;;;;;9.49;70.42;97036.16;5002218;28;20034;-79
2021/11/05 00:21:25;;;;;;;10.43;6.93;;;;;;;9.52;70.20;97037.47;4975753;28;20392;-79
2021/11/05 00:23:50;;;;;;;11.40;6.88;;;;;;;9.50;70.01;97034.31;4991874;28;20033;-79
2021/11/05 00:26:16;;;;;;;11.25;7.22;;;;;;;9.50;69.94;97029.91;4977932;28;20030;-79
2021/11/05 00:28:41;;;;;;;9.90;6.53;;;;;;;9.52;69.68;97037.47;4973627;28;20078;-80
2021/11/05 00:31:07;;;;;;;9.88;7.00;;;;;;;9.43;69.84;97023.31;4976133;28;20087;-79
2021/11/05 00:33:32;;;;;;;8.77;5.35;;;;;;;9.51;70.22;97041.88;4999937;28;20046;-80
2021/11/05 00:35:57;;;;;;;9.57;6.55;;;;;;;9.52;69.54;97034.88;4972919;28;20042;-80
2021/11/05 00:38:23;;;;;;;10.30;6.78;;;;;;;9.50;69.70;97036.94;4957511;28;20030;-79
2021/11/05 00:40:48;;;;;;;11.52;7.35;;;;;;;9.44;70.13;97041.28;4957692;28;20038;-79
2021/11/05 00:43:14;;;;;;;12.50;7.53;;;;;;;9.47;69.96;97038.19;4992630;28;20121;-79
2021/11/05 00:45:39;;;;;;;11.93;7.03;;;;;;;9.49;70.02;97049.16;5008293;28;20033;-79
2021/11/05 00:48:05;;;;;;;13.15;7.53;;;;;;;9.52;70.09;97042.66;5008686;28;20061;-79
2021/11/05 00:50:31;;;;;;;10.98;7.15;;;;;;;9.59;70.05;97056.28;4973870;28;20336;-79
2021/11/05 00:52:57;;;;;;;12.63;7.00;;;;;;;9.51;69.91;97052.28;4972480;28;20026;-80
2021/11/05 00:55:24;;;;;;;11.32;7.20;;;;;;;9.55;69.54;97055.97;4955709;28;20054;-80
2021/11/05 00:57:50;;;;;;;12.60;7.88;;;;;;;9.52;70.10;97053.84;4972866;28;20388;-79
2021/11/05 01:00:16;;;;;;;13.77;8.00;;;;;;;9.60;70.17;97054.47;4940938;28;20290;-80
2021/11/05 01:02:41;;;;;;;10.63;7.20;;;;;;;9.66;69.73;97064.66;4972201;28;20630;-79
2021/11/05 01:05:08;;;;;;;10.98;7.03;;;;;;;9.61;69.43;97063.81;4973061;28;20034;-79
2021/11/05 01:07:33;;;;;;;13.00;8.05;;;;;;;9.57;69.87;97064.31;4972071;28;20038;-80
2021/11/05 01:09:58;;;;;;;11.30;7.45;;;;;;;9.54;70.09;97059.59;4990699;28;20046;-80
2021/11/05 01:12:24;;;;;;;13.50;7.85;;;;;;;9.53;69.93;97071.03;4968422;28;20539;-80
2021/11/05 01:14:50;;;;;;;11.85;7.78;;;;;;;9.51;69.98;97067.06;5006276;28;20491;-79
2021/11/05 01:17:16;;;;;;;13.35;7.65;;;;;;;9.46;70.16;97070.41;4991848;28;20443;-79
2021/11/05 01:19:41;;;;;;;12.10;8.10;;;;;;;9.52;70.14;97069.44;4973766;28;20036;-78
2021/11/05 01:22:06;;;;;;;13.82;8.38;;;;;;;9.51;70.43;97073.06;4967312;28;20040;-80
2021/11/05 01:24:32;;;;;;;13.05;8.32;;;;;;;9.51;69.94;97074.88;5007668;28;20767;-79
2021/11/05 01:26:58;;;;;;;13.95;8.05;;;;;;;9.52;70.38;97066.84;4991346;28;20112;-79
2021/11/05 01:29:23;;;;;;;15.88;9.43;;;;;;;9.51;69.91;97073.06;5000273;28;20030;-79
2021/11/05 01:31:50;;;;;;;14.27;8.40;;;;;;;9.61;69.66;97074.22;4988263;28;20088;-80
2021/11/05 01:34:15;;;;;;;15.18;8.13;;;;;;;9.56;69.92;97078.34;4940705;28;20117;-79
2021/11/05 01:36:41;;;;;;;15.02;9.35;;;;;;;9.61;69.79;97087.22;4955848;28;20113;-79
2021/11/05 01:39:07;;;;;;;15.90;9.45;;;;;;;9.59;69.93;97078.88;4956686;28;20088;-79
2021/11/05 01:41:36;;;;;;;16.80;10.18;;;;;;;9.46;70.05;97086.00;4956635;28;20057;-79
2021/11/05 01:44:02;;;;;;;13.90;8.95;;;;;;;9.61;70.23;97082.81;4956499;28;20065;-79
2021/11/05 01:46:27;;;;;;;16.30;9.73;;;;;;;9.64;70.04;97086.75;4963303;28;20463;-79
2021/11/05 01:48:53;;;;;;;15.88;9.57;;;;;;;9.70;69.75;97088.41;4973128;28;20026;-79
2021/11/05 01:51:18;;;;;;;14.77;9.32;;;;;;;9.61;69.75;97085.41;4975188;28;20443;-79
2021/11/05 01:53:46;;;;;;;15.05;9.32;;;;;;;9.52;69.91;97092.81;4991362;28;20395;-78
2021/11/05 01:56:12;;;;;;;15.25;9.60;;;;;;;9.64;69.71;97089.34;4975051;28;20037;-79
2021/11/05 01:58:37;;;;;;;16.02;9.02;;;;;;;9.61;70.16;97097.63;4975419;28;20037;-79
2021/11/05 02:01:04;;;;;;;16.13;9.93;;;;;;;9.64;69.92;97099.75;4975726;28;20030;-79
2021/11/05 02:03:30;;;;;;;15.85;9.77;;;;;;;9.58;70.57;97101.50;4976314;28;20079;-79
2021/11/05 02:05:55;;;;;;;15.30;9.05;;;;;;;9.63;69.71;97105.97;4992174;28;20030;-80
2021/11/05 02:08:20;;;;;;;15.80;9.70;;;;;;;9.66;70.22;97113.28;4991831;28;20084;-79
2021/11/05 02:10:47;;;;;;;15.48;9.60;;;;;;;9.65;70.33;97117.72;4975417;28;20038;-79
2021/11/05 02:13:13;;;;;;;15.02;9.68;;;;;;;9.66;69.88;97110.69;4992016;28;20084;-79
2021/11/05 02:15:39;;;;;;;13.95;8.93;;;;;;;9.67;70.08;97107.84;4975477;28;20048;-79
2021/11/05 02:18:05;;;;;;;14.18;9.43;;;;;;;9.63;70.14;97114.56;4991883;28;20033;-80
2021/11/05 02:20:30;;;;;;;14.43;9.07;;;;;;;9.71;69.71;97123.75;4992014;28;20145;-79
2021/11/05 02:22:56;;;;;;;14.18;8.82;;;;;;;9.68;70.17;97132.03;4959480;28;20420;-79
2021/11/05 02:25:21;;;;;;;17.35;9.18;;;;;;;9.70;70.09;97128.19;4975101;28;20052;-79
2021/11/05 02:27:47;;;;;;;17.83;9.77;;;;;;;9.73;70.06;97134.69;4974862;28;20022;-79
2021/11/05 02:30:13;;;;;;;16.90;9.85;;;;;;;9.77;69.81;97133.22;4975502;28;20076;-79
2021/11/05 02:32:41;;;;;;;15.32;9.60;;;;;;;9.72;70.05;97136.53;4992057;28;20058;-79
2021/11/05 02:35:07;;;;;;;17.77;10.65;;;;;;;9.68;69.91;97129.44;4975669;28;20041;-79
2021/11/05 02:37:33;;;;;;;16.73;9.55;;;;;;;9.73;70.19;97132.91;4991606;28;20034;-79
2021/11/05 02:39:58;;;;;;;16.70;9.75;;;;;;;9.75;69.79;97136.03;4975980;28;20068;-79
2021/11/05 02:42:24;;;;;;;16.08;10.07;;;;;;;9.69;70.33;97138.81;4991531;28;20057;-79
2021/11/05 02:44:49;;;;;;;16.45;10.27;;;;;;;9.71;69.95;97139.34;4991313;28;20507;-79
2021/11/05 02:47:24;;;;;;;15.02;9.75;;;;;;;9.72;69.68;97146.91;4991016;28;20029;-79
2021/11/05 02:49:52;;;;;;;18.45;10.93;;;;;;;9.65;70.12;97151.50;4977890;28;20419;-79
2021/11/05 02:52:18;;;;;;;17.15;10.18;;;;;;;9.66;69.91;97147.09;4988434;28;20038;-79
2021/11/05 02:54:43;;;;;;;17.90;11.07;;;;;;;9.73;70.34;97150.28;4971672;28;20511;-79
2021/11/05 02:57:09;;;;;;;18.40;10.40;;;;;;;9.66;70.13;97150.47;4971512;28;20500;-79
2021/11/05 02:59:35;;;;;;;18.45;10.68;;;;;;;9.66;70.05;97154.88;4989290;28;20113;-79
2021/11/05 03:02:01;;;;;;;16.67;10.07;;;;;;;9.75;70.19;97162.03;4971281;28;20041;-79
2021/11/05 03:04:26;;;;;;;18.67;11.05;;;;;;;9.72;70.25;97162.53;4955655;28;20034;-79
2021/11/05 03:06:58;;;;;;;18.63;9.95;;;;;;;9.52;70.25;97165.59;4971325;28;20117;-79
2021/11/05 03:09:23;;;;;;;17.23;10.25;;;;;;;9.68;70.42;97165.81;4971640;28;20038;-79
2021/11/05 03:11:49;;;;;;;17.83;10.10;;;;;;;9.72;70.10;97166.94;4971429;28;20045;-79
2021/11/05 03:14:14;;;;;;;16.85;10.23;;;;;;;9.76;70.05;97178.44;4988665;28;20049;-78
2021/11/05 03:16:40;;;;;;;17.65;10.45;;;;;;;9.77;70.57;97174.00;5004196;28;20034;-79
2021/11/05 03:19:07;;;;;;;18.58;11.02;;;;;;;9.74;70.04;97173.47;4978485;28;20041;-79
2021/11/05 03:21:33;;;;;;;15.70;10.32;;;;;;;9.84;70.14;97183.22;4981063;28;20111;-79
2021/11/05 03:23:58;;;;;;;19.50;10.80;;;;;;;9.83;70.08;97186.84;4997542;28;20515;-79
2021/11/05 03:26:24;;;;;;;19.08;10.57;;;;;;;9.82;70.26;97192.28;4980553;28;20401;-79
2021/11/05 03:28:50;;;;;;;18.27;11.40;;;;;;;9.81;69.69;97188.13;4995427;28;20033;-79
2021/11/05 03:31:17;;;;;;;20.10;10.60;;;;;;;9.73;70.18;97194.50;4964414;28;20036;-79
2021/11/05 03:33:48;;;;;;;19.08;10.32;;;;;;;9.81;70.21;97198.53;5013925;28;20109;-78
2021/11/05 03:36:15;;;;;;;18.48;10.43;;;;;;;9.80;70.11;97195.16;4995504;28;20051;-78
2021/11/05 03:38:40;;;;;;;17.60;10.57;;;;;;;9.80;70.12;97202.94;4981405;28;20026;-79
2021/11/05 03:41:06;;;;;;;19.65;10.93;;;;;;;9.82;69.97;97208.69;4991697;28;20467;-78
2021/11/05 03:43:31;;;;;;;17.63;10.77;;;;;;;9.79;70.10;97209.16;4981159;28;20025;-78
2021/11/05 03:45:57;;;;;;;19.67;11.43;;;;;;;9.82;70.04;97223.47;4997284;28;20116;-79
2021/11/05 03:48:22;;;;;;;19.15;10.88;;;;;;;9.90;70.04;97226.50;4996347;28;20038;-79
2021/11/05 03:50:48;;;;;;;18.85;10.50;;;;;;;9.88;70.22;97223.31;4997183;28;20407;-79
2021/11/05 03:53:13;;;;;;;17.27;10.20;;;;;;;9.86;69.97;97230.56;4980990;28;20064;-79
2021/11/05 03:55:40;;;;;;;19.95;10.45;;;;;;;9.88;69.96;97236.31;5014608;28;20036;-79
2021/11/05 03:58:06;;;;;;;18.20;9.90;;;;;;;9.87;70.03;97237.38;4997158;28;20037;-79
2021/11/05 04:00:31;;;;;;;19.80;11.13;;;;;;;9.89;69.54;97243.13;5015017;28;20026;-79
2021/11/05 04:02:57;;;;;;;18.90;10.85;;;;;;;9.91;69.71;97243.66;4997563;28;20032;-79
2021/11/05 04:05:22;;;;;;;16.42;9.88;;;;;;;9.88;69.77;97238.16;4997084;28;20038;-79
2021/11/05 04:07:51;;;;;;;18.83;10.30;;;;;;;9.91;69.89;97263.69;4981366;28;20038;-79
2021/11/05 04:10:16;;;;;;;20.38;12.35;;;;;;;9.86;70.01;97251.38;5013583;28;20546;-79
2021/11/05 04:12:42;;;;;;;20.55;10.70;;;;;;;9.89;69.94;97258.72;4997242;28;20030;-78
2021/11/05 04:15:08;;;;;;;18.92;10.13;;;;;;;9.93;70.16;97270.22;4980268;28;20036;-79
2021/11/05 04:17:34;;;;;;;20.23;10.90;;;;;;;9.88;69.74;97264.16;4981287;28;20113;-79
2021/11/05 04:20:00;;;;;;;17.33;10.25;;;;;;;9.88;69.95;97270.13;4997448;28;20128;-78
2021/11/05 04:22:25;;;;;;;19.10;10.40;;;;;;;9.89;69.68;97274.31;5014546;28;20152;-79
2021/11/05 04:24:50;;;;;;;18.30;10.45;;;;;;;9.88;69.89;97274.56;4980301;28;20228;-79
2021/11/05 04:27:16;;;;;;;18.17;10.65;;;;;;;9.92;69.95;97283.44;4996509;28;20053;-79
2021/11/05 04:29:41;;;;;;;18.92;11.25;;;;;;;9.88;69.96;97282.34;4979977;28;20282;-79
2021/11/05 04:32:07;;;;;;;19.48;10.43;;;;;;;9.91;69.71;97287.09;4993913;28;20045;-79
2021/11/05 04:34:33;;;;;;;19.55;11.38;;;;;;;9.94;69.83;97284.03;4977975;28;20026;-79
2021/11/05 04:36:58;;;;;;;18.85;10.70;;;;;;;9.99;69.47;97296.28;4977299;28;20381;-79
2021/11/05 04:39:24;;;;;;;18.27;10.07;;;;;;;10.02;69.64;97295.84;4961698;28;20057;-78
2021/11/05 04:41:51;;;;;;;20.63;10.50;;;;;;;10.00;69.46;97300.50;4993172;28;20468;-79
2021/11/05 04:44:16;;;;;;;19.90;10.50;;;;;;;10.03;69.16;97307.81;4977660;28;20054;-79
2021/11/05 04:46:42;;;;;;;18.85;10.57;;;;;;;10.03;69.30;97310.44;5010608;28;20034;-78
2021/11/05 04:49:07;;;;;;;18.27;10.25;;;;;;;9.98;69.39;97307.75;4988932;28;20439;-79
2021/11/05 04:51:33;;;;;;;18.23;10.88;;;;;;;10.02;69.41;97312.22;4973725;28;20467;-79
2021/11/05 04:53:59;;;;;;;20.83;10.65;;;;;;;9.97;69.45;97311.34;4969096;28;20032;-79
2021/11/05 04:56:24;;;;;;;19.95;10.85;;;;;;;10.02;69.41;97314.03;4992615;28;20020;-79
2021/11/05 04:58:50;;;;;;;18.38;10.75;;;;;;;9.92;69.66;97312.06;4993040;28;20053;-79
2021/11/05 05:01:15;;;;;;;20.60;11.63;;;;;;;9.97;69.30;97319.16;4993646;28;20029;-79
2021/11/05 05:03:41;;;;;;;16.98;9.80;;;;;;;9.97;69.58;97313.97;4977328;28;20028;-79
2021/11/05 05:06:06;;;;;;;16.65;9.40;;;;;;;10.04;69.74;97331.00;4993153;28;20057;-79
2021/11/05 05:08:31;;;;;;;17.52;10.45;;;;;;;10.05;69.19;97324.75;4976765;28;20026;-79
2021/11/05 05:10:57;;;;;;;20.08;10.68;;;;;;;9.97;69.30;97316.56;4993300;28;20472;-79
2021/11/05 05:13:22;;;;;;;17.38;9.45;;;;;;;9.96;69.67;97325.41;5010509;28;20030;-79
2021/11/05 05:15:49;;;;;;;17.30;10.52;;;;;;;9.99;69.65;97332.72;4990767;28;20041;-79
2021/11/05 05:18:15;;;;;;;20.25;10.73;;;;;;;10.00;69.34;97326.50;4960672;28;20034;-79
2021/11/05 05:20:45;;;;;;;18.70;10.43;;;;;;;9.90;69.50;97330.53;4976895;28;20346;-79
2021/11/05 05:23:11;;;;;;;16.42;9.98;;;;;;;9.94;69.72;97326.41;4977246;28;20119;-79
2021/11/05 05:25:37;;;;;;;17.23;10.25;;;;;;;9.93;69.38;97335.22;4976712;28;20045;-79
2021/11/05 05:28:03;;;;;;;19.42;10.35;;;;;;;9.90;69.51;97335.72;4976713;28;20041;-79
2021/11/05 05:30:28;;;;;;;19.17;9.82;;;;;;;9.84;69.71;97330.69;4991084;28;20030;-79
2021/11/05 05:32:53;;;;;;;14.98;8.68;;;;;;;9.84;69.91;97341.84;4992428;28;20038;-79
2021/11/05 05:35:19;;;;;;;18.20;9.95;;;;;;;9.82;69.53;97348.31;4976430;28;20125;-79
2021/11/05 05:37:45;;;;;;;17.73;10.43;;;;;;;9.88;69.96;97363.75;4975945;28;20387;-79
2021/11/05 05:40:11;;;;;;;19.90;10.50;;;;;;;9.86;69.51;97359.84;4993041;28;20049;-79
2021/11/05 05:42:37;;;;;;;18.48;10.35;;;;;;;9.87;69.77;97374.41;4991945;28;20036;-79
2021/11/05 05:45:05;;;;;;;17.70;10.70;;;;;;;9.84;69.39;97373.06;4975763;28;20116;-79
2021/11/05 05:47:30;;;;;;;17.85;10.48;;;;;;;9.85;69.62;97379.84;4992744;28;20270;-79
2021/11/05 05:49:55;;;;;;;18.63;10.93;;;;;;;9.80;69.88;97379.78;4990891;28;20034;-79
2021/11/05 05:52:21;;;;;;;19.17;10.55;;;;;;;9.73;70.03;97379.91;4991193;28;20026;-79
2021/11/05 05:54:46;;;;;;;20.48;10.75;;;;;;;9.77;69.95;97387.22;4992011;28;20049;-81
2021/11/05 05:57:11;;;;;;;19.42;11.18;;;;;;;9.81;69.96;97390.94;4992404;28;20030;-81
2021/11/05 05:59:37;;;;;;;23.95;12.52;;;;;;;9.79;69.76;97396.38;4991664;28;20045;-81
2021/11/05 06:02:03;;;;;;;22.38;11.43;;;;;;;9.83;70.03;97397.47;4975123;28;20116;-80
2021/11/05 06:04:28;;;;;;;21.65;11.85;;;;;;;9.77;70.44;97403.63;5008351;28;20068;-81
2021/11/05 06:06:55;;;;;;;22.02;11.15;;;;;;;9.79;69.83;97403.41;4990671;28;20100;-81
2021/11/05 06:09:24;;;;;;;22.80;12.15;;;;;;;9.78;70.02;97405.19;4974975;28;20067;-81
2021/11/05 06:11:49;;;;;;;20.48;11.30;;;;;;;9.89;69.75;97411.38;4990456;28;20084;-81
2021/11/05 06:14:15;;;;;;;22.25;12.10;;;;;;;9.96;69.42;97411.25;5006951;28;20038;-81
2021/11/05 06:16:41;;;;;;;21.77;11.70;;;;;;;10.01;69.28;97424.34;4990396;28;20029;-82
2021/11/05 06:19:07;;;;;;;19.35;11.02;;;;;;;10.00;69.16;97420.94;4974674;28;20025;-81
2021/11/05 06:21:33;;;;;;;21.38;11.38;;;;;;;9.94;69.09;97420.06;4990974;28;20036;-81
2021/11/05 06:23:58;;;;;;;23.13;12.10;;;;;;;9.89;69.24;97421.78;4991053;28;20030;-80
2021/11/05 06:26:24;;;;;;;22.05;12.13;;;;;;;9.84;69.52;97425.06;4987935;28;20100;-80
2021/11/05 06:28:49;;;;;;;22.67;11.63;;;;;;;9.84;69.60;97434.69;4971792;28;20026;-80
2021/11/05 06:31:15;;;;;;;18.30;10.55;;;;;;;9.82;69.67;97432.31;4955165;28;20097;-80
2021/11/05 06:33:41;;;;;;;17.55;10.30;;;;;;;9.81;69.56;97443.75;4972131;28;20038;-80
2021/11/05 06:36:06;;;;;;;17.48;10.25;;;;;;;9.75;69.58;97439.47;4971723;28;20030;-81
2021/11/05 06:38:32;;;;;;;17.23;10.35;;;;;;;9.64;69.83;97453.31;4988521;28;20034;-81
2021/11/05 06:40:58;;;;;;;17.75;10.70;;;;;;;9.57;69.77;97456.81;4956361;28;20034;-80
2021/11/05 06:43:23;;;;;;;17.73;9.82;;;;;;;9.55;69.82;97458.06;4972205;28;20034;-81
2021/11/05 06:45:49;;;;;;;18.67;11.15;;;;;;;9.54;69.80;97462.50;4971786;28;20030;-80
2021/11/05 06:48:15;;;;;;;21.65;11.77;;;;;;;9.54;70.02;97467.69;4973201;28;20056;-80
2021/11/05 06:50:42;;;;;;;20.83;12.10;;;;;;;9.59;70.04;97466.97;4972117;28;20477;-81
2021/11/05 06:53:08;;;;;;;18.95;10.60;;;;;;;9.63;69.71;97467.31;4958949;28;20088;-81
2021/11/05 06:55:34;;;;;;;24.50;10.73;;;;;;;9.61;70.05;97469.34;4990843;28;20041;-81
2021/11/05 06:57:59;;;;;;;19.23;11.35;;;;;;;9.61;69.99;97470.13;4991673;28;20033;-81
2021/11/05 07:00:24;;;;;;;21.45;11.60;;;;;;;9.64;69.92;97481.91;4991757;28;20109;-81
2021/11/05 07:02:50;;;;;;;22.13;11.48;;;;;;;9.61;70.35;97488.34;5007756;28;20029;-81
2021/11/05 07:05:16;;;;;;;18.42;10.45;;;;;;;9.63;70.22;97495.91;4990787;28;20037;-81
2021/11/05 07:07:42;;;;;;;22.30;11.20;;;;;;;9.63;70.19;97495.91;4991337;28;20034;-79
2021/11/05 07:10:10;;;;;;;23.05;13.32;;;;;;;9.63;70.08;97508.91;4977461;28;20073;-78
2021/11/05 07:12:35;;;;;;;22.38;12.68;;;;;;;9.69;70.34;97508.00;4974834;28;20391;-78
2021/11/05 07:15:01;;;;;;;19.75;11.00;;;;;;;9.71;70.27;97514.53;4973550;28;20125;-78
2021/11/05 07:17:26;;;;;;;20.70;11.02;;;;;;;9.72;70.24;97521.31;4972816;28;20044;-78
2021/11/05 07:19:52;;;;;;;24.52;12.23;;;;;;;9.80;70.18;97533.19;4974146;28;20455;-78
2021/11/05 07:22:18;;;;;;;23.52;12.85;;;;;;;9.80;69.81;97535.78;4990520;28;20053;-78
2021/11/05 07:24:44;;;;;;;24.10;12.52;;;;;;;9.82;69.97;97544.16;4947749;28;20042;-78
2021/11/05 07:27:11;;;;;;;24.63;12.00;;;;;;;9.85;69.59;97543.69;4989841;28;20101;-78
2021/11/05 07:29:36;;;;;;;23.73;12.40;;;;;;;9.88;69.68;97548.41;4980192;28;20484;-78
2021/11/05 07:32:04;;;;;;;21.70;11.70;;;;;;;9.92;69.41;97565.16;4998085;28;20104;-78
2021/11/05 07:34:32;;;;;;;22.85;11.98;;;;;;;9.87;69.11;97565.06;4990343;28;20072;-78
2021/11/05 07:36:59;;;;;;;22.80;12.65;;;;;;;9.87;69.86;97572.88;5006580;28;20038;-78
2021/11/05 07:39:24;;;;;;;25.30;13.15;;;;;;;9.86;69.68;97573.09;4990314;28;20108;-78
2021/11/05 07:41:50;;;;;;;25.65;12.52;;;;;;;9.91;69.27;97576.56;4990231;28;20041;-78
2021/11/05 07:44:15;;;;;;;23.92;12.07;;;;;;;9.89;69.57;97593.44;4990378;28;20038;-78
2021/11/05 07:46:42;;;;;;;22.08;11.70;;;;;;;9.93;69.79;97591.94;4989946;28;20038;-78
2021/11/05 07:49:08;;;;;;;26.17;12.88;;;;;;;10.02;69.28;97593.16;4973967;28;20030;-78
2021/11/05 07:51:33;;;;;;;25.80;14.20;;;;;;;9.97;69.16;97594.88;4990355;28;20034;-78
2021/11/05 07:53:58;;;;;;;24.33;13.40;;;;;;;9.93;69.32;97608.34;4987152;28;20026;-78
2021/11/05 07:56:24;;;;;;;28.80;14.82;;;;;;;9.92;69.33;97617.19;4970551;28;20022;-78
2021/11/05 07:58:49;;;;;;;24.25;12.75;;;;;;;9.87;69.70;97613.66;4970968;28;20373;-78
2021/11/05 08:01:15;;;;;;;24.00;13.05;;;;;;;9.92;69.67;97626.78;4970799;28;20026;-78
2021/11/05 08:03:41;;;;;;;22.58;12.05;;;;;;;9.93;69.52;97626.56;4971181;28;20546;-78
2021/11/05 08:06:07;;;;;;;23.95;12.30;;;;;;;9.92;69.20;97627.59;4960156;28;20026;-78
2021/11/05 08:08:32;;;;;;;22.98;11.55;;;;;;;9.99;69.77;97639.66;4977886;28;20030;-78
2021/11/05 08:10:58;;;;;;;22.48;12.48;;;;;;;9.98;69.72;97638.09;4993602;28;20165;-78
2021/11/05 08:13:23;;;;;;;23.40;12.30;;;;;;;10.02;69.71;97650.41;5009783;28;20042;-78
2021/11/05 08:15:49;;;;;;;25.83;13.55;;;;;;;9.94;69.89;97648.94;4992695;28;20030;-78
2021/11/05 08:18:14;;;;;;;21.08;11.55;;;;;;;10.07;70.00;97652.31;4993621;28;20033;-78
2021/11/05 08:20:39;;;;;;;25.33;13.07;;;;;;;10.09;69.70;97653.69;4993604;28;20117;-78
2021/11/05 08:23:05;;;;;;;22.48;12.40;;;;;;;10.11;69.45;97658.66;4987772;28;20037;-78
2021/11/05 08:25:31;;;;;;;22.13;11.82;;;;;;;10.07;70.23;97658.31;4973744;28;20428;-78
2021/11/05 08:27:57;;;;;;;22.40;12.02;;;;;;;10.25;70.11;97672.22;4979426;28;20485;-78
2021/11/05 08:30:24;;;;;;;21.40;11.98;;;;;;;10.23;69.63;97677.66;4977839;28;20101;-78
2021/11/05 08:32:54;;;;;;;21.45;11.63;;;;;;;10.22;69.64;97683.09;5010968;28;20030;-78
2021/11/05 08:35:20;;;;;;;20.48;11.13;;;;;;;10.33;69.73;97691.91;4993982;28;20029;-78
2021/11/05 08:37:46;;;;;;;18.88;10.55;;;;;;;10.26;69.76;97698.03;4987907;28;20165;-78
2021/11/05 08:40:11;;;;;;;20.23;12.27;;;;;;;10.31;69.32;97699.91;4993615;28;20132;-78
2021/11/05 08:42:37;;;;;;;18.88;11.13;;;;;;;10.34;69.34;97704.69;4993010;28;20080;-78
2021/11/05 08:45:07;;;;;;;20.13;11.52;;;;;;;10.29;69.64;97707.94;5008833;28;20065;-78
2021/11/05 08:47:35;;;;;;;19.15;11.75;;;;;;;10.44;69.21;97717.13;4986766;28;20042;-80
2021/11/05 08:50:03;;;;;;;27.13;15.07;;;;;;;10.44;68.73;97719.75;4974693;28;20022;-80
2021/11/05 08:52:28;;;;;;;20.23;12.00;;;;;;;10.47;69.10;97724.50;4957568;28;20030;-80
2021/11/05 08:54:54;;;;;;;21.08;12.65;;;;;;;10.44;68.75;97717.91;4991443;28;20511;-80
2021/11/05 08:57:19;;;;;;;19.85;12.13;;;;;;;10.55;68.83;97718.13;5010069;28;20550;-80
2021/11/05 08:59:45;;;;;;;20.90;11.48;;;;;;;10.57;68.70;97729.88;4993474;28;20097;-80
2021/11/05 09:02:10;;;;;;;18.15;11.23;;;;;;;10.47;68.39;97734.91;5009173;28;20025;-80
2021/11/05 09:04:35;;;;;;;18.05;10.70;;;;;;;10.58;67.52;97728.88;4975947;28;20037;-80
2021/11/05 09:07:01;;;;;;;16.65;9.82;;;;;;;10.61;68.11;97736.22;5009921;28;20488;-80
2021/11/05 09:09:26;;;;;;;18.15;10.75;;;;;;;10.72;67.22;97741.63;5008743;28;20033;-80
2021/11/05 09:11:52;;;;;;;18.40;10.18;;;;;;;10.55;68.74;97746.75;4992828;28;20030;-80
2021/11/05 09:14:19;;;;;;;17.25;10.73;;;;;;;10.70;68.03;97746.28;4992979;28;20092;-80
2021/11/05 09:16:44;;;;;;;17.27;9.50;;;;;;;10.68;68.28;97749.91;4987887;28;20049;-78
2021/11/05 09:19:10;;;;;;;16.33;9.95;;;;;;;10.68;68.05;97755.09;4974740;28;20034;-78
2021/11/05 09:21:35;;;;;;;14.13;9.10;;;;;;;10.65;68.40;97752.97;5009683;28;20034;-78
2021/11/05 09:24:02;;;;;;;17.10;10.18;;;;;;;10.59;68.33;97756.50;4975385;28;20030;-78
2021/11/05 09:26:28;;;;;;;17.23;9.95;;;;;;;10.66;68.24;97759.75;4975358;28;20029;-78
2021/11/05 09:28:54;;;;;;;16.30;10.27;;;;;;;10.65;68.01;97763.38;4972799;28;20045;-78
2021/11/05 09:31:22;;;;;;;15.23;9.18;;;;;;;10.57;67.92;97768.94;4987927;28;20035;-78
2021/11/05 09:33:47;;;;;;;14.65;8.85;;;;;;;10.73;68.18;97771.84;4992439;28;20110;-78
2021/11/05 09:36:12;;;;;;;14.35;9.20;;;;;;;10.82;67.88;97762.66;5009592;28;20064;-78
2021/11/05 09:38:38;;;;;;;14.43;8.93;;;;;;;10.90;67.62;97770.13;4975629;28;20563;-78
2021/11/05 09:41:05;;;;;;;16.50;9.52;;;;;;;10.85;67.81;97783.84;4992593;28;20036;-78
2021/11/05 09:43:31;;;;;;;17.83;10.38;;;;;;;11.02;68.17;97788.34;5008193;28;20096;-78
2021/11/05 09:45:57;;;;;;;18.55;10.13;;;;;;;11.08;68.17;97789.22;4991830;28;20046;-78
2021/11/05 09:48:23;;;;;;;16.73;9.85;;;;;;;11.14;67.84;97796.09;4991307;28;20252;-78
2021/11/05 09:50:49;;;;;;;13.80;9.55;;;;;;;11.03;67.00;97798.50;4973495;28;20384;-78
2021/11/05 09:53:15;;;;;;;14.25;9.13;;;;;;;10.92;65.65;97794.13;4983121;28;20085;-78
2021/11/05 09:55:47;;;;;;;14.23;8.38;;;;;;;10.87;67.46;97809.66;4944369;28;20034;-78
2021/11/05 09:58:13;;;;;;;13.75;8.88;;;;;;;11.09;67.00;97809.03;4991324;28;20034;-78
2021/11/05 10:00:40;;;;;;;12.90;7.90;;;;;;;11.12;65.79;97813.78;4974825;28;20091;-78
2021/11/05 10:03:06;;;;;;;14.05;8.60;;;;;;;11.22;66.24;97819.19;4975102;28;20041;-80
2021/11/05 10:05:33;;;;;;;15.95;8.05;;;;;;;11.14;66.32;97817.75;4991794;28;20030;-80
2021/11/05 10:08:01;;;;;;;13.35;8.23;;;;;;;10.93;66.75;97815.75;4988942;28;20109;-80
2021/11/05 10:10:30;;;;;;;13.15;7.60;;;;;;;10.80;66.24;97822.03;5001801;28;20109;-80
2021/11/05 10:13:02;;;;;;;12.70;8.02;;;;;;;11.05;66.67;97826.94;4991409;28;20030;-77
2021/11/05 10:15:34;;;;;;;13.85;8.50;;;;;;;10.90;66.42;97819.63;5007160;28;20067;-78
2021/11/05 10:18:26;;;;;;;13.88;8.32;;;;;;;10.79;66.64;97828.25;4990957;28;20121;-78
2021/11/05 10:21:10;;;;;;;10.85;7.25;;;;;;;10.96;65.84;97826.50;5006601;28;20137;-78
2021/11/05 10:23:38;;;;;;;10.73;7.07;;;;;;;11.21;65.46;97830.66;4990820;28;20041;-77
2021/11/05 10:26:05;;;;;;;10.95;6.95;;;;;;;11.20;65.07;97827.22;4974610;28;20042;-78
2021/11/05 10:28:36;;;;;;;12.40;7.88;;;;;;;11.29;66.12;97839.91;4971380;28;20496;-78
2021/11/05 10:31:03;;;;;;;12.98;8.10;;;;;;;11.44;65.65;97838.38;4982151;28;20045;-78
2021/11/05 10:33:38;;;;;;;13.75;9.18;;;;;;;11.39;65.90;97846.09;4989992;28;20069;-78
2021/11/05 10:36:05;;;;;;;13.80;9.43;;;;;;;11.04;65.87;97843.63;4990407;28;20034;-78
2021/11/05 10:38:34;;;;;;;15.00;8.98;;;;;;;10.85;65.71;97845.56;4990466;28;20026;-78
2021/11/05 10:41:01;;;;;;;15.63;8.68;;;;;;;11.02;65.79;97843.84;4974279;28;20034;-78
2021/11/05 10:43:40;;;;;;;16.33;9.98;;;;;;;10.92;65.69;97837.63;4988738;28;20042;-78
2021/11/05 10:46:08;;;;;;;20.85;12.00;;;;;;;11.14;65.50;97848.22;4970983;28;20584;-78
2021/11/05 10:48:39;;;;;;;17.50;10.82;;;;;;;11.15;65.49;97855.03;4973904;28;20034;-79
2021/11/05 10:51:07;;;;;;;20.35;12.38;;;;;;;11.12;66.26;97851.06;4988202;28;20562;-78
2021/11/05 10:53:40;;;;;;;15.93;9.30;;;;;;;10.71;66.59;97854.63;4990853;28;20488;-79
2021/11/05 10:56:14;;;;;;;20.30;12.10;;;;;;;10.90;66.58;97861.31;4990713;28;20331;-78
2021/11/05 10:59:00;;;;;;;16.70;10.25;;;;;;;10.97;66.71;97863.78;4990889;28;20034;-78
2021/11/05 11:01:34;;;;;;;13.93;9.02;;;;;;;10.80;66.34;97861.09;4971310;28;20041;-78
2021/11/05 11:04:04;;;;;;;16.55;9.63;;;;;;;11.17;66.19;97859.00;4976234;28;20173;-79
2021/11/05 11:06:46;;;;;;;19.80;9.27;;;;;;;11.11;66.15;97864.34;5006610;28;20220;-79
2021/11/05 11:09:21;;;;;;;14.07;10.00;;;;;;;11.10;65.24;97873.16;4989083;28;20428;-79
2021/11/05 11:11:48;;;;;;;;;;;;;;;10.96;65.52;97868.19;4989599;28;20035;-79
2021/11/05 11:14:18;;;;;;;14.38;8.20;;;;;;;11.39;64.93;97866.94;4987053;28;19913;-79
2021/11/05 11:16:56;;;;;;;21.63;12.70;;;;;;;11.06;64.91;97870.22;4988091;28;20068;-79
2021/11/05 11:19:24;;;;;;;13.23;8.43;;;;;;;11.34;64.75;97863.47;4996238;28;20041;-79
2021/11/05 11:21:56;;;;;;;14.88;8.32;;;;;;;11.59;64.18;97865.75;4981815;28;20080;-79
2021/11/05 11:24:24;;;;;;;10.05;6.60;;;;;;;11.91;62.63;97863.47;4998281;28;20566;-79